Map

Track Data

SID SEASON NUMBER BASIN SUBBASIN NAME ISO_TIME NATURE LAT LON WMO_WIND WMO_PRES WMO_AGENCY TRACK_TYPE DIST2LAND LANDFALL IFLAG USA_AGENCY USA_ATCF_ID USA_LAT USA_LON USA_RECORD USA_STATUS USA_WIND USA_PRES USA_SSHS USA_R34_NE USA_R34_SE USA_R34_SW USA_R34_NW USA_R50_NE USA_R50_SE USA_R50_SW USA_R50_NW USA_R64_NE USA_R64_SE USA_R64_SW USA_R64_NW USA_POCI USA_ROCI USA_RMW USA_EYE TOKYO_LAT TOKYO_LON TOKYO_GRADE TOKYO_WIND TOKYO_PRES TOKYO_R50_DIR TOKYO_R50_LONG TOKYO_R50_SHORT TOKYO_R30_DIR TOKYO_R30_LONG TOKYO_R30_SHORT TOKYO_LAND CMA_LAT CMA_LON CMA_CAT CMA_WIND CMA_PRES HKO_LAT HKO_LON HKO_CAT HKO_WIND HKO_PRES NEWDELHI_LAT NEWDELHI_LON NEWDELHI_GRADE NEWDELHI_WIND NEWDELHI_PRES NEWDELHI_CI NEWDELHI_DP NEWDELHI_POCI REUNION_LAT REUNION_LON REUNION_TYPE REUNION_WIND REUNION_PRES REUNION_TNUM REUNION_CI REUNION_RMW REUNION_R34_NE REUNION_R34_SE REUNION_R34_SW REUNION_R34_NW REUNION_R50_NE REUNION_R50_SE REUNION_R50_SW REUNION_R50_NW REUNION_R64_NE REUNION_R64_SE REUNION_R64_SW REUNION_R64_NW BOM_LAT BOM_LON BOM_TYPE BOM_WIND BOM_PRES BOM_TNUM BOM_CI BOM_RMW BOM_R34_NE BOM_R34_SE BOM_R34_SW BOM_R34_NW BOM_R50_NE BOM_R50_SE BOM_R50_SW BOM_R50_NW BOM_R64_NE BOM_R64_SE BOM_R64_SW BOM_R64_NW BOM_ROCI BOM_POCI BOM_EYE BOM_POS_METHOD BOM_PRES_METHOD NADI_LAT NADI_LON NADI_CAT NADI_WIND NADI_PRES WELLINGTON_LAT WELLINGTON_LON WELLINGTON_WIND WELLINGTON_PRES DS824_LAT DS824_LON DS824_STAGE DS824_WIND DS824_PRES TD9636_LAT TD9636_LON TD9636_STAGE TD9636_WIND TD9636_PRES TD9635_LAT TD9635_LON TD9635_WIND TD9635_PRES TD9635_ROCI NEUMANN_LAT NEUMANN_LON NEUMANN_CLASS NEUMANN_WIND NEUMANN_PRES MLC_LAT MLC_LON MLC_CLASS MLC_WIND MLC_PRES USA_GUST BOM_GUST BOM_GUST_PER REUNION_GUST REUNION_GUST_PER USA_SEAHGT USA_SEARAD_NE USA_SEARAD_SE USA_SEARAD_SW USA_SEARAD_NW STORM_SPEED STORM_DIR
1888253N11118 1888 45 WP MM NOT_NAMED 1888-09-09 04:00:00 NR 11.4000 118.300 main 122 122 __________O___ -1 11.4000 118.300 7 9 276
1888253N11118 1888 45 WP MM NOT_NAMED 1888-09-09 06:00:00 NR 11.4318 117.982 main 152 152 __________P___ -1 11.4318 117.982 7 9 276
1888253N11118 1888 45 WP MM NOT_NAMED 1888-09-09 09:00:00 NR 11.4798 117.511 main 207 207 __________P___ -1 11.4798 117.511 7 9 276
1888253N11118 1888 45 WP MM NOT_NAMED 1888-09-09 12:00:00 NR 11.5292 117.058 main 243 251 __________P___ -1 11.5292 117.058 7 9 277
1888253N11118 1888 45 WP MM NOT_NAMED 1888-09-09 15:00:00 NR 11.5816 116.633 main 293 293 __________P___ -1 11.5816 116.633 7 8 277
1888253N11118 1888 45 WP MM NOT_NAMED 1888-09-09 16:00:00 NR 11.6000 116.500 main 302 302 __________O___ -1 11.6000 116.500 7 8 279
1888253N11118 1888 45 WP MM NOT_NAMED 1888-09-09 18:00:00 NR 11.6386 116.245 main 320 320 __________P___ -1 11.6386 116.245 7 7 280
1888253N11118 1888 45 WP MM NOT_NAMED 1888-09-09 21:00:00 NR 11.7028 115.877 main 348 348 __________P___ -1 11.7028 115.877 7 8 281
1888253N11118 1888 45 WP MM NOT_NAMED 1888-09-10 00:00:00 NR 11.7778 115.493 main 384 384 __________P___ -1 11.7778 115.493 7 8 282
1888253N11118 1888 45 WP MM NOT_NAMED 1888-09-10 03:00:00 NR 11.8667 115.061 main 422 430 __________P___ -1 11.8667 115.061 7 9 282
1888253N11118 1888 45 WP MM NOT_NAMED 1888-09-10 04:00:00 NR 11.9000 114.900 main 438 438 __________O___ -1 11.9000 114.900 3 10 282
1888253N11118 1888 45 WP MM NOT_NAMED 1888-09-10 06:00:00 NR 11.9746 114.540 main 477 477 __________P___ -1 11.9746 114.540 3 12 282
1888253N11118 1888 45 WP MM NOT_NAMED 1888-09-10 09:00:00 NR 12.0991 113.943 main 481 415 __________P___ -1 12.0991 113.943 3 12 282
1888253N11118 1888 45 WP MM NOT_NAMED 1888-09-10 12:00:00 NR 12.2303 113.298 main 415 337 __________P___ -1 12.2303 113.298 3 13 281
1888253N11118 1888 45 WP MM NOT_NAMED 1888-09-10 15:00:00 NR 12.3592 112.626 main 337 315 __________P___ -1 12.3592 112.626 3 13 281
1888253N11118 1888 45 WP MM NOT_NAMED 1888-09-10 16:00:00 NR 12.4000 112.400 main 315 271 __________O___ -1 12.4000 112.400 4 13 280
1888253N11118 1888 45 WP MM NOT_NAMED 1888-09-10 18:00:00 NR 12.4723 111.951 main 271 195 __________P___ -1 12.4723 111.951 4 13 279
1888253N11118 1888 45 WP MM NOT_NAMED 1888-09-10 21:00:00 NR 12.5746 111.264 main 195 119 __________P___ -1 12.5746 111.264 4 14 278
1888253N11118 1888 45 WP MM NOT_NAMED 1888-09-11 00:00:00 NR 12.6721 110.579 main 119 44 __________P___ -1 12.6721 110.579 4 13 278
1888253N11118 1888 45 WP MM NOT_NAMED 1888-09-11 03:00:00 NR 12.7679 109.914 main 44 24 __________P___ -1 12.7679 109.914 4 13 278
1888253N11118 1888 45 WP MM NOT_NAMED 1888-09-11 04:00:00 NR 12.8000 109.700 main 24 0 __________O___ -1 12.8000 109.700 4 12 279
1888253N11118 1888 45 WP MM NOT_NAMED 1888-09-11 06:00:00 NR 12.8635 109.294 main 0 0 __________P___ -1 12.8635 109.294 4 12 279
1888253N11118 1888 45 WP MM NOT_NAMED 1888-09-11 09:00:00 NR 12.9591 108.710 main 0 0 __________P___ -1 12.9591 108.710 4 11 280
1888253N11118 1888 45 WP MM NOT_NAMED 1888-09-11 12:00:00 NR 13.0580 108.145 main 0 0 __________P___ -1 13.0580 108.145 4 11 281
1888253N11118 1888 45 WP MM NOT_NAMED 1888-09-11 15:00:00 NR 13.1631 107.587 main 0 0 __________P___ -1 13.1631 107.587 4 11 281
1888253N11118 1888 45 WP MM NOT_NAMED 1888-09-11 16:00:00 NR 13.2000 107.400 main 0 0 __________O___ -1 13.2000 107.400 7 11 282
1888253N11118 1888 45 WP MM NOT_NAMED 1888-09-11 18:00:00 NR 13.2771 107.024 main 0 0 __________P___ -1 13.2771 107.024 7 11 282
1888253N11118 1888 45 WP MM NOT_NAMED 1888-09-11 21:00:00 NR 13.3992 106.452 main 0 0 __________P___ -1 13.3992 106.452 7 11 283
1888253N11118 1888 45 WP MM NOT_NAMED 1888-09-12 00:00:00 NR 13.5267 105.875 main 0 0 __________P___ -1 13.5267 105.875 7 12 283
1888253N11118 1888 45 WP MM NOT_NAMED 1888-09-12 03:00:00 NR 13.6566 105.294 main 0 0 __________P___ -1 13.6566 105.294 7 12 283
1888253N11118 1888 45 WP MM NOT_NAMED 1888-09-12 04:00:00 NR 13.7000 105.100 main 0 __________O___ -1 13.7000 105.100 7 12 283

Digital Typhoon Data and Search

About IBTrACS Database

This database is a web-friendly format of International Best Track Archive for Climate Stewardship (IBTrACS), a global best track data archive curated by NOAA dating back to 1842.

Updated: 2021-10-27